createdAt,value
2023-03-06T00:01:02.096Z,99490.56
2023-03-06T00:06:03.122Z,99488.00
2023-03-06T00:11:05.241Z,99470.84
2023-03-06T00:16:07.034Z,99472.59
2023-03-06T00:21:08.759Z,99487.16
2023-03-06T00:26:11.496Z,99471.72
2023-03-06T00:31:14.216Z,99471.75
2023-03-06T00:36:14.911Z,99471.72
2023-03-06T00:41:16.915Z,99456.28
2023-03-06T00:46:17.562Z,99457.16
2023-03-06T00:51:19.739Z,99457.16
2023-03-06T00:56:21.787Z,99446.00
2023-03-06T01:01:23.264Z,99447.72
2023-03-06T01:06:24.936Z,99441.75
2023-03-06T01:11:27.149Z,99440.03
2023-03-06T01:16:28.264Z,99434.00
2023-03-06T01:21:28.963Z,99434.84
2023-03-06T01:26:31.680Z,99423.72
2023-03-06T01:31:32.407Z,99422.00
2023-03-06T01:36:33.260Z,99416.06
2023-03-06T01:41:37.912Z,99407.47
2023-03-06T01:46:42.131Z,99410.91
2023-03-06T01:51:48.563Z,99411.78
2023-03-06T01:56:55.009Z,99398.06
2023-03-06T02:01:57.120Z,99389.50
2023-03-06T02:07:00.270Z,99390.34
2023-03-06T02:12:02.893Z,99393.78
2023-03-06T02:17:04.083Z,99384.31
2023-03-06T02:22:06.305Z,99381.78
2023-03-06T02:27:10.863Z,99379.22
2023-03-06T02:32:11.759Z,99375.75
2023-03-06T02:37:12.600Z,99371.47
2023-03-06T02:42:20.177Z,99373.19
2023-03-06T02:47:21.262Z,99359.47
2023-03-06T02:52:25.385Z,99358.63
2023-03-06T02:57:27.522Z,99344.06
2023-03-06T03:02:29.694Z,99346.66
2023-03-06T03:07:30.568Z,99336.38
2023-03-06T03:12:33.155Z,99326.13
2023-03-06T03:17:36.540Z,99332.13
2023-03-06T03:22:37.287Z,99324.41
2023-03-06T03:27:40.495Z,99330.47
2023-03-06T03:32:41.505Z,99320.16
2023-03-06T03:37:43.339Z,99320.19
2023-03-06T03:42:45.517Z,99317.59
2023-03-06T03:47:47.438Z,99309.91
2023-03-06T03:52:48.467Z,99303.94
2023-03-06T03:57:50.954Z,99297.91
2023-03-06T04:02:52.506Z,99291.09
2023-03-06T04:08:04.330Z,99286.81
2023-03-06T04:13:09.959Z,99283.38
2023-03-06T04:18:16.334Z,99282.53
2023-03-06T04:23:18.383Z,99273.13
2023-03-06T04:28:22.021Z,99267.13
2023-03-06T04:33:23.205Z,99265.41
2023-03-06T04:38:24.037Z,99272.25
2023-03-06T04:43:26.414Z,99267.13
2023-03-06T04:48:27.117Z,99258.56
2023-03-06T04:53:27.901Z,99256.84
2023-03-06T04:58:29.927Z,99257.72
2023-03-06T05:03:30.615Z,99248.28
2023-03-06T05:08:32.006Z,99248.28
2023-03-06T05:13:34.203Z,99243.16
2023-03-06T05:18:36.165Z,99238.88
2023-03-06T05:23:38.625Z,99239.75
2023-03-06T05:28:41.431Z,99232.88
2023-03-06T05:33:42.238Z,99235.47
2023-03-06T05:38:43.301Z,99232.03
2023-03-06T05:43:45.321Z,99228.59
2023-03-06T05:48:46.929Z,99232.91
2023-03-06T05:53:47.929Z,99226.91
2023-03-06T05:58:50.933Z,99221.75
2023-03-06T06:03:51.855Z,99224.34
2023-03-06T06:08:52.558Z,99226.03
2023-03-06T06:13:56.720Z,99214.06
2023-03-06T06:18:58.544Z,99226.06
2023-03-06T06:23:59.268Z,99230.31
2023-03-06T06:29:01.249Z,99228.59
2023-03-06T06:34:02.097Z,99232.03
2023-03-06T06:39:03.570Z,99224.28
2023-03-06T06:44:08.892Z,99232.00
2023-03-06T06:49:09.645Z,99231.09
2023-03-06T06:54:11.953Z,99229.34
2023-03-06T06:59:17.223Z,99230.16
2023-03-06T07:04:19.148Z,99237.81
2023-03-06T07:09:20.127Z,99221.56
2023-03-06T07:14:22.149Z,99213.03
2023-03-06T07:19:22.888Z,99215.41
2023-03-06T07:24:23.606Z,99212.94
2023-03-06T07:29:25.599Z,99214.56
2023-03-06T07:34:26.284Z,99209.41
2023-03-06T07:39:28.168Z,99208.44
2023-03-06T07:44:30.303Z,99207.56
2023-03-06T07:49:30.936Z,99202.31
2023-03-06T07:54:32.712Z,99206.53
2023-03-06T07:59:35.760Z,99207.31
2023-03-06T08:04:36.434Z,99213.31
2023-03-06T08:09:37.210Z,99205.41
2023-03-06T08:14:39.198Z,99199.44
2023-03-06T08:19:39.910Z,99199.28
2023-03-06T08:24:40.668Z,99200.50
2023-03-06T08:29:42.681Z,99200.97
2023-03-06T08:34:45.550Z,99206.22
2023-03-06T08:39:46.236Z,99209.22
2023-03-06T08:44:48.286Z,99207.00
2023-03-06T08:49:49.156Z,99198.72
2023-03-06T08:54:49.818Z,99201.47
2023-03-06T08:59:51.822Z,99207.50
2023-03-06T09:04:52.508Z,99210.00
2023-03-06T09:09:56.946Z,99211.69
2023-03-06T09:14:58.986Z,99210.81
2023-03-06T09:19:59.735Z,99198.75
2023-03-06T09:25:00.813Z,99196.97
2023-03-06T09:30:02.998Z,99194.31
2023-03-06T09:35:03.695Z,99194.19
2023-03-06T09:40:06.851Z,99189.91
2023-03-06T09:45:13.089Z,99191.25
2023-03-06T09:50:29.553Z,99183.91
2023-03-06T09:55:33.432Z,99181.19
2023-03-06T10:00:39.693Z,99179.47
2023-03-06T10:05:42.922Z,99171.22
2023-03-06T10:10:47.955Z,99171.13
2023-03-06T10:15:51.042Z,99166.31
2023-03-06T10:21:13.450Z,99167.66
2023-03-06T10:26:23.453Z,99164.16
2023-03-06T10:31:27.752Z,99171.00
2023-03-06T10:36:30.125Z,99167.97
2023-03-06T10:41:32.964Z,99160.22
2023-03-06T10:46:37.396Z,99174.03
2023-03-06T10:51:38.244Z,99170.53
2023-03-06T10:56:41.234Z,99160.94
2023-03-06T11:01:45.335Z,99156.66
2023-03-06T11:06:46.138Z,99148.22
2023-03-06T11:11:46.885Z,99146.53
2023-03-06T11:16:53.194Z,99150.88
2023-03-06T11:22:02.321Z,99140.72
2023-03-06T11:27:10.015Z,99137.13
2023-03-06T11:32:17.532Z,99145.00
2023-03-06T11:37:26.774Z,99148.31
2023-03-06T11:42:30.506Z,99160.69
2023-03-06T11:47:36.069Z,99148.78
2023-03-06T11:52:47.781Z,99144.47
2023-03-06T11:57:56.967Z,99141.91
2023-03-06T12:03:25.142Z,99137.53
2023-03-06T12:08:40.946Z,99123.94
2023-03-06T12:13:58.311Z,99115.31
2023-03-06T12:19:14.379Z,99110.28
2023-03-06T12:24:30.400Z,99102.75
2023-03-06T12:29:47.308Z,99093.53
2023-03-06T12:35:06.081Z,99085.81
2023-03-06T12:40:43.013Z,99089.84
2023-03-06T12:45:45.381Z,99093.53
2023-03-06T12:50:48.513Z,99091.69
2023-03-06T12:55:50.757Z,99094.09
2023-03-06T13:01:06.039Z,99102.44
2023-03-06T13:06:26.465Z,99090.34
2023-03-06T13:11:43.494Z,99093.88
2023-03-06T13:16:44.274Z,99109.19
2023-03-06T13:22:04.373Z,99123.34
2023-03-06T13:27:10.459Z,99116.69
2023-03-06T13:32:18.880Z,99112.44
2023-03-06T13:37:51.881Z,99105.50
2023-03-06T13:43:23.603Z,99101.91
2023-03-06T13:48:43.684Z,99098.41
2023-03-06T13:54:30.671Z,99077.63
2023-03-06T14:00:13.651Z,99083.59
2023-03-06T14:05:16.263Z,99069.44
2023-03-06T14:10:23.847Z,99063.22
2023-03-06T14:15:28.200Z,99067.50
2023-03-06T14:20:36.423Z,99069.81
2023-03-06T14:25:38.674Z,99068.75
2023-03-06T14:30:50.429Z,99074.84
2023-03-06T14:35:55.002Z,99073.75
2023-03-06T14:40:58.403Z,99067.13
2023-03-06T14:46:00.842Z,99070.38
2023-03-06T14:51:02.820Z,99061.06
2023-03-06T14:56:06.848Z,99063.56
2023-03-06T15:01:10.461Z,99063.41
2023-03-06T15:06:16.567Z,99065.88
2023-03-06T15:11:18.662Z,99058.88
2023-03-06T15:16:30.163Z,99055.41
2023-03-06T15:21:36.193Z,99060.81
2023-03-06T15:26:40.814Z,99054.59
2023-03-06T15:31:43.367Z,99049.53
2023-03-06T15:36:47.387Z,99047.22
2023-03-06T15:41:49.494Z,99049.97
2023-03-06T15:46:53.870Z,99046.53
2023-03-06T15:51:59.862Z,99044.16
2023-03-06T15:57:03.456Z,99047.44
2023-03-06T16:02:14.417Z,99068.06
2023-03-06T16:07:16.128Z,99088.47
2023-03-06T16:12:20.036Z,99091.03
2023-03-06T16:17:20.709Z,99111.22
2023-03-06T16:22:21.379Z,99107.09
2023-03-06T16:27:25.679Z,99103.72
2023-03-06T16:32:28.696Z,99116.56
2023-03-06T16:37:29.502Z,99117.38
2023-03-06T16:42:32.022Z,99112.25
2023-03-06T16:47:32.706Z,99109.66
2023-03-06T16:52:33.504Z,99110.50
2023-03-06T16:57:35.798Z,99105.34
2023-03-06T17:02:36.659Z,99100.22
2023-03-06T17:07:38.741Z,99097.66
2023-03-06T17:12:40.809Z,99095.88
2023-03-06T17:17:41.534Z,99107.88
2023-03-06T17:22:45.406Z,99108.72
2023-03-06T17:27:47.378Z,99112.94
2023-03-06T17:32:48.071Z,99118.97
2023-03-06T17:37:48.754Z,99117.25
2023-03-06T17:42:50.872Z,99122.28
2023-03-06T17:47:54.752Z,99125.75
2023-03-06T17:52:55.424Z,99141.16
2023-03-06T17:57:57.667Z,99143.72
2023-03-06T18:02:58.341Z,99136.75
2023-03-06T18:07:59.009Z,99135.09
2023-03-06T18:13:00.966Z,99137.66
2023-03-06T18:18:01.811Z,99133.41
2023-03-06T18:23:03.775Z,99138.53
2023-03-06T18:28:06.045Z,99142.84
2023-03-06T18:33:06.813Z,99142.00
2023-03-06T18:38:07.450Z,99147.97
2023-03-06T18:43:09.419Z,99157.41
2023-03-06T18:48:10.631Z,99153.09
2023-03-06T18:53:11.340Z,99156.50
2023-03-06T18:58:13.400Z,99153.03
2023-03-06T19:03:14.496Z,99152.22
2023-03-06T19:08:16.567Z,99150.47
2023-03-06T19:13:18.684Z,99156.56
2023-03-06T19:18:19.462Z,99149.72
2023-03-06T19:23:21.195Z,99157.38
2023-03-06T19:28:23.296Z,99160.00
2023-03-06T19:33:23.969Z,99146.22
2023-03-06T19:38:24.662Z,99147.09
2023-03-06T19:43:26.776Z,99144.47
2023-03-06T19:48:27.485Z,99146.22
2023-03-06T19:53:28.320Z,99149.63
2023-03-06T19:58:30.350Z,99149.69
2023-03-06T20:03:31.158Z,99144.56
2023-03-06T20:08:32.072Z,99142.84
2023-03-06T20:13:34.204Z,99143.72
2023-03-06T20:18:34.990Z,99142.03
2023-03-06T20:23:36.073Z,99146.31
2023-03-06T20:28:39.313Z,99141.16
2023-03-06T20:33:40.474Z,99137.75
2023-03-06T20:39:05.047Z,99137.78
2023-03-06T20:44:08.989Z,99136.16
2023-03-06T20:49:10.091Z,99140.41
2023-03-06T20:54:13.847Z,99131.03
2023-03-06T20:59:16.108Z,99126.66
2023-03-06T21:04:17.357Z,99124.13
2023-03-06T21:09:18.465Z,99116.38
2023-03-06T21:14:20.585Z,99110.34
2023-03-06T21:19:21.265Z,99104.34
2023-03-06T21:24:22.406Z,99095.69
2023-03-06T21:29:24.747Z,99090.56
2023-03-06T21:34:25.473Z,99090.56
2023-03-06T21:39:26.448Z,99095.69
2023-03-06T21:44:28.607Z,99087.13
2023-03-06T21:49:29.504Z,99085.44
2023-03-06T21:54:30.201Z,99076.91
2023-03-06T21:59:32.271Z,99078.66
2023-03-06T22:04:33.058Z,99077.88
2023-03-06T22:09:35.755Z,99087.34
2023-03-06T22:14:37.862Z,99068.59
2023-03-06T22:19:38.532Z,99070.31
2023-03-06T22:24:39.380Z,99065.25
2023-03-06T22:29:41.483Z,99063.56
2023-03-06T22:34:42.264Z,99053.28
2023-03-06T22:39:42.942Z,99052.44
2023-03-06T22:44:45.183Z,99049.88
2023-03-06T22:49:45.894Z,99046.44
2023-03-06T22:54:46.649Z,99038.78
2023-03-06T22:59:48.666Z,99050.78
2023-03-06T23:04:52.232Z,99051.63
2023-03-06T23:09:53.047Z,99051.63
2023-03-06T23:15:13.932Z,99040.53
2023-03-06T23:20:34.393Z,99034.50
2023-03-06T23:25:53.920Z,99027.66
2023-03-06T23:30:56.047Z,99028.44
2023-03-06T23:35:56.758Z,99026.72
2023-03-06T23:40:57.442Z,99022.44
2023-03-06T23:46:00.198Z,99014.72
2023-03-06T23:51:01.249Z,99010.44
2023-03-06T23:56:02.280Z,99006.16
